sensor_id;sensor_type;location;lat;lon;timestamp;P1;durP1;ratioP1;P2;durP2;ratioP2
27365;SDS011;14837;57.148;-2.144;2022-09-17T00:00:45;6.85;;;1.98;;
27365;SDS011;14837;57.148;-2.144;2022-09-17T00:03:12;5.80;;;1.15;;
27365;SDS011;14837;57.148;-2.144;2022-09-17T00:05:39;7.18;;;1.33;;
27365;SDS011;14837;57.148;-2.144;2022-09-17T00:08:06;4.25;;;1.52;;
27365;SDS011;14837;57.148;-2.144;2022-09-17T00:10:36;3.88;;;1.05;;
27365;SDS011;14837;57.148;-2.144;2022-09-17T00:13:03;5.25;;;1.40;;
27365;SDS011;14837;57.148;-2.144;2022-09-17T00:15:30;3.38;;;0.90;;
27365;SDS011;14837;57.148;-2.144;2022-09-17T00:17:57;7.60;;;1.50;;
27365;SDS011;14837;57.148;-2.144;2022-09-17T00:20:24;6.13;;;2.25;;
27365;SDS011;14837;57.148;-2.144;2022-09-17T00:22:52;3.60;;;1.73;;
27365;SDS011;14837;57.148;-2.144;2022-09-17T00:25:19;4.13;;;1.40;;
27365;SDS011;14837;57.148;-2.144;2022-09-17T00:27:45;4.55;;;1.20;;
27365;SDS011;14837;57.148;-2.144;2022-09-17T00:30:12;8.73;;;1.92;;
27365;SDS011;14837;57.148;-2.144;2022-09-17T00:32:39;6.07;;;1.65;;
27365;SDS011;14837;57.148;-2.144;2022-09-17T00:35:06;3.00;;;1.10;;
27365;SDS011;14837;57.148;-2.144;2022-09-17T00:37:32;2.22;;;1.05;;
27365;SDS011;14837;57.148;-2.144;2022-09-17T00:39:59;3.28;;;1.20;;
27365;SDS011;14837;57.148;-2.144;2022-09-17T00:42:28;5.80;;;1.30;;
27365;SDS011;14837;57.148;-2.144;2022-09-17T00:44:55;6.25;;;1.73;;
27365;SDS011;14837;57.148;-2.144;2022-09-17T00:47:24;4.45;;;1.30;;
27365;SDS011;14837;57.148;-2.144;2022-09-17T00:49:55;4.60;;;1.17;;
27365;SDS011;14837;57.148;-2.144;2022-09-17T00:52:25;5.82;;;1.40;;
27365;SDS011;14837;57.148;-2.144;2022-09-17T00:54:59;4.10;;;1.20;;
27365;SDS011;14837;57.148;-2.144;2022-09-17T00:57:27;3.83;;;1.85;;
27365;SDS011;14837;57.148;-2.144;2022-09-17T00:59:53;12.82;;;2.55;;
27365;SDS011;14837;57.148;-2.144;2022-09-17T01:02:20;7.78;;;1.85;;
27365;SDS011;14837;57.148;-2.144;2022-09-17T01:04:48;2.92;;;1.50;;
27365;SDS011;14837;57.148;-2.144;2022-09-17T01:07:42;6.03;;;1.35;;
27365;SDS011;14837;57.148;-2.144;2022-09-17T01:15:59;4.75;;;1.30;;
27365;SDS011;14837;57.148;-2.144;2022-09-17T01:31:29;4.60;;;1.17;;
27365;SDS011;14837;57.148;-2.144;2022-09-17T01:34:07;2.58;;;0.80;;
27365;SDS011;14837;57.148;-2.144;2022-09-17T01:36:59;6.22;;;1.25;;
27365;SDS011;14837;57.148;-2.144;2022-09-17T01:46:52;5.87;;;1.13;;
27365;SDS011;14837;57.148;-2.144;2022-09-17T01:49:20;3.97;;;0.88;;
27365;SDS011;14837;57.148;-2.144;2022-09-17T01:51:50;4.18;;;1.25;;
27365;SDS011;14837;57.148;-2.144;2022-09-17T01:54:30;3.67;;;1.20;;
27365;SDS011;14837;57.148;-2.144;2022-09-17T01:56:58;2.80;;;1.48;;
27365;SDS011;14837;57.148;-2.144;2022-09-17T01:59:37;3.50;;;1.00;;
27365;SDS011;14837;57.148;-2.144;2022-09-17T02:02:08;4.43;;;2.10;;
27365;SDS011;14837;57.148;-2.144;2022-09-17T02:04:43;4.18;;;1.38;;
27365;SDS011;14837;57.148;-2.144;2022-09-17T02:07:21;4.78;;;1.30;;
27365;SDS011;14837;57.148;-2.144;2022-09-17T02:09:51;4.03;;;1.15;;
27365;SDS011;14837;57.148;-2.144;2022-09-17T02:12:19;9.23;;;1.50;;
27365;SDS011;14837;57.148;-2.144;2022-09-17T02:14:50;5.40;;;1.27;;
27365;SDS011;14837;57.148;-2.144;2022-09-17T02:17:23;4.55;;;1.23;;
27365;SDS011;14837;57.148;-2.144;2022-09-17T02:19:52;4.63;;;1.45;;
27365;SDS011;14837;57.148;-2.144;2022-09-17T02:22:25;3.80;;;1.42;;
27365;SDS011;14837;57.148;-2.144;2022-09-17T02:25:07;1.20;;;0.85;;
27365;SDS011;14837;57.148;-2.144;2022-09-17T02:27:37;5.05;;;1.30;;
27365;SDS011;14837;57.148;-2.144;2022-09-17T02:30:08;5.68;;;1.10;;
27365;SDS011;14837;57.148;-2.144;2022-09-17T02:32:35;1.58;;;1.00;;
27365;SDS011;14837;57.148;-2.144;2022-09-17T02:35:01;4.57;;;1.48;;
27365;SDS011;14837;57.148;-2.144;2022-09-17T02:37:28;2.22;;;1.20;;
27365;SDS011;14837;57.148;-2.144;2022-09-17T02:39:54;9.45;;;1.40;;
27365;SDS011;14837;57.148;-2.144;2022-09-17T02:47:33;5.35;;;1.17;;
27365;SDS011;14837;57.148;-2.144;2022-09-17T02:53:28;4.30;;;1.45;;
27365;SDS011;14837;57.148;-2.144;2022-09-17T02:58:35;4.43;;;1.52;;
27365;SDS011;14837;57.148;-2.144;2022-09-17T03:01:04;3.95;;;1.52;;
27365;SDS011;14837;57.148;-2.144;2022-09-17T03:03:36;4.93;;;1.27;;
27365;SDS011;14837;57.148;-2.144;2022-09-17T03:06:04;2.63;;;1.17;;
27365;SDS011;14837;57.148;-2.144;2022-09-17T03:08:33;9.15;;;1.73;;
27365;SDS011;14837;57.148;-2.144;2022-09-17T03:11:00;4.43;;;1.00;;
27365;SDS011;14837;57.148;-2.144;2022-09-17T03:13:26;3.20;;;1.42;;
27365;SDS011;14837;57.148;-2.144;2022-09-17T03:15:53;4.90;;;1.58;;
27365;SDS011;14837;57.148;-2.144;2022-09-17T03:18:19;8.65;;;3.47;;
27365;SDS011;14837;57.148;-2.144;2022-09-17T03:20:46;4.88;;;1.90;;
27365;SDS011;14837;57.148;-2.144;2022-09-17T03:23:12;3.92;;;1.38;;
27365;SDS011;14837;57.148;-2.144;2022-09-17T03:25:39;5.80;;;1.48;;
27365;SDS011;14837;57.148;-2.144;2022-09-17T03:28:05;6.47;;;1.58;;
27365;SDS011;14837;57.148;-2.144;2022-09-17T03:30:32;3.83;;;1.42;;
27365;SDS011;14837;57.148;-2.144;2022-09-17T03:32:58;7.22;;;1.77;;
27365;SDS011;14837;57.148;-2.144;2022-09-17T03:35:25;8.07;;;2.63;;
27365;SDS011;14837;57.148;-2.144;2022-09-17T03:37:51;3.40;;;1.45;;
27365;SDS011;14837;57.148;-2.144;2022-09-17T03:40:18;2.80;;;1.17;;
27365;SDS011;14837;57.148;-2.144;2022-09-17T03:42:45;4.00;;;1.27;;
27365;SDS011;14837;57.148;-2.144;2022-09-17T03:45:11;5.03;;;1.55;;
27365;SDS011;14837;57.148;-2.144;2022-09-17T03:47:38;3.90;;;1.63;;
27365;SDS011;14837;57.148;-2.144;2022-09-17T03:50:04;6.15;;;2.00;;
27365;SDS011;14837;57.148;-2.144;2022-09-17T03:52:31;4.82;;;1.70;;
27365;SDS011;14837;57.148;-2.144;2022-09-17T03:54:57;4.38;;;1.70;;
27365;SDS011;14837;57.148;-2.144;2022-09-17T03:57:24;2.80;;;1.45;;
27365;SDS011;14837;57.148;-2.144;2022-09-17T03:59:51;4.40;;;1.35;;
27365;SDS011;14837;57.148;-2.144;2022-09-17T04:02:17;4.85;;;1.40;;
27365;SDS011;14837;57.148;-2.144;2022-09-17T04:04:44;5.25;;;1.88;;
27365;SDS011;14837;57.148;-2.144;2022-09-17T04:07:10;4.68;;;1.77;;
27365;SDS011;14837;57.148;-2.144;2022-09-17T04:09:37;4.25;;;1.45;;
27365;SDS011;14837;57.148;-2.144;2022-09-17T04:12:03;2.20;;;1.30;;
27365;SDS011;14837;57.148;-2.144;2022-09-17T04:14:30;3.75;;;1.35;;
27365;SDS011;14837;57.148;-2.144;2022-09-17T04:16:57;3.80;;;1.52;;
27365;SDS011;14837;57.148;-2.144;2022-09-17T04:19:23;6.93;;;1.85;;
27365;SDS011;14837;57.148;-2.144;2022-09-17T04:21:50;6.57;;;1.90;;
27365;SDS011;14837;57.148;-2.144;2022-09-17T04:24:16;5.68;;;1.95;;
27365;SDS011;14837;57.148;-2.144;2022-09-17T04:26:43;4.72;;;1.70;;
27365;SDS011;14837;57.148;-2.144;2022-09-17T04:29:09;5.03;;;2.10;;
27365;SDS011;14837;57.148;-2.144;2022-09-17T04:31:36;8.15;;;1.77;;
27365;SDS011;14837;57.148;-2.144;2022-09-17T04:34:03;7.15;;;1.77;;
27365;SDS011;14837;57.148;-2.144;2022-09-17T04:36:29;3.70;;;1.63;;
27365;SDS011;14837;57.148;-2.144;2022-09-17T04:38:56;5.97;;;2.13;;
27365;SDS011;14837;57.148;-2.144;2022-09-17T04:41:22;3.15;;;1.42;;
27365;SDS011;14837;57.148;-2.144;2022-09-17T04:43:49;4.30;;;2.17;;
27365;SDS011;14837;57.148;-2.144;2022-09-17T04:46:15;5.18;;;1.60;;
27365;SDS011;14837;57.148;-2.144;2022-09-17T04:48:42;4.95;;;1.90;;
27365;SDS011;14837;57.148;-2.144;2022-09-17T04:51:08;3.47;;;1.50;;
27365;SDS011;14837;57.148;-2.144;2022-09-17T04:53:35;3.63;;;1.73;;
27365;SDS011;14837;57.148;-2.144;2022-09-17T04:56:03;5.47;;;1.80;;
27365;SDS011;14837;57.148;-2.144;2022-09-17T04:58:30;3.85;;;1.88;;
27365;SDS011;14837;57.148;-2.144;2022-09-17T05:00:58;4.70;;;1.60;;
27365;SDS011;14837;57.148;-2.144;2022-09-17T05:03:24;3.90;;;1.67;;
27365;SDS011;14837;57.148;-2.144;2022-09-17T05:05:51;7.22;;;2.08;;
27365;SDS011;14837;57.148;-2.144;2022-09-17T05:08:17;4.22;;;1.60;;
27365;SDS011;14837;57.148;-2.144;2022-09-17T05:10:44;8.30;;;2.50;;
27365;SDS011;14837;57.148;-2.144;2022-09-17T05:13:10;4.35;;;1.63;;
27365;SDS011;14837;57.148;-2.144;2022-09-17T05:15:37;2.65;;;1.40;;
27365;SDS011;14837;57.148;-2.144;2022-09-17T05:18:03;4.53;;;1.52;;
27365;SDS011;14837;57.148;-2.144;2022-09-17T05:20:30;2.38;;;2.10;;
27365;SDS011;14837;57.148;-2.144;2022-09-17T05:22:56;4.60;;;1.83;;
27365;SDS011;14837;57.148;-2.144;2022-09-17T05:25:23;6.53;;;2.08;;
27365;SDS011;14837;57.148;-2.144;2022-09-17T05:27:50;5.22;;;1.70;;
27365;SDS011;14837;57.148;-2.144;2022-09-17T05:30:17;6.03;;;1.95;;
27365;SDS011;14837;57.148;-2.144;2022-09-17T05:32:44;4.32;;;1.67;;
27365;SDS011;14837;57.148;-2.144;2022-09-17T05:35:10;4.35;;;1.73;;
27365;SDS011;14837;57.148;-2.144;2022-09-17T05:37:37;4.13;;;1.88;;
27365;SDS011;14837;57.148;-2.144;2022-09-17T05:40:04;6.35;;;1.88;;
27365;SDS011;14837;57.148;-2.144;2022-09-17T05:42:32;6.13;;;1.55;;
27365;SDS011;14837;57.148;-2.144;2022-09-17T05:44:58;4.93;;;1.75;;
27365;SDS011;14837;57.148;-2.144;2022-09-17T05:47:25;2.78;;;1.77;;
27365;SDS011;14837;57.148;-2.144;2022-09-17T05:49:51;3.72;;;1.55;;
27365;SDS011;14837;57.148;-2.144;2022-09-17T05:52:18;3.80;;;2.40;;
27365;SDS011;14837;57.148;-2.144;2022-09-17T05:54:45;5.65;;;1.45;;
27365;SDS011;14837;57.148;-2.144;2022-09-17T05:57:12;3.03;;;1.80;;
27365;SDS011;14837;57.148;-2.144;2022-09-17T05:59:38;6.32;;;1.73;;
27365;SDS011;14837;57.148;-2.144;2022-09-17T06:02:05;2.28;;;1.50;;
27365;SDS011;14837;57.148;-2.144;2022-09-17T06:04:31;4.53;;;1.40;;
27365;SDS011;14837;57.148;-2.144;2022-09-17T06:07:03;4.15;;;1.30;;
27365;SDS011;14837;57.148;-2.144;2022-09-17T06:09:29;3.75;;;1.70;;
27365;SDS011;14837;57.148;-2.144;2022-09-17T06:11:56;5.18;;;1.40;;
27365;SDS011;14837;57.148;-2.144;2022-09-17T06:14:22;2.75;;;1.30;;
27365;SDS011;14837;57.148;-2.144;2022-09-17T06:16:49;3.88;;;1.63;;
27365;SDS011;14837;57.148;-2.144;2022-09-17T06:19:15;5.53;;;1.30;;
27365;SDS011;14837;57.148;-2.144;2022-09-17T06:21:42;4.00;;;1.48;;
27365;SDS011;14837;57.148;-2.144;2022-09-17T06:24:09;5.03;;;1.65;;
27365;SDS011;14837;57.148;-2.144;2022-09-17T06:26:35;3.72;;;1.77;;
27365;SDS011;14837;57.148;-2.144;2022-09-17T06:29:02;3.13;;;1.55;;
27365;SDS011;14837;57.148;-2.144;2022-09-17T06:31:29;4.30;;;1.85;;
27365;SDS011;14837;57.148;-2.144;2022-09-17T06:33:55;2.20;;;1.65;;
27365;SDS011;14837;57.148;-2.144;2022-09-17T06:36:23;1.63;;;1.48;;
27365;SDS011;14837;57.148;-2.144;2022-09-17T06:38:50;3.63;;;2.13;;
27365;SDS011;14837;57.148;-2.144;2022-09-17T06:41:16;4.30;;;1.73;;
27365;SDS011;14837;57.148;-2.144;2022-09-17T06:43:43;2.35;;;1.65;;
27365;SDS011;14837;57.148;-2.144;2022-09-17T06:46:10;2.97;;;1.33;;
27365;SDS011;14837;57.148;-2.144;2022-09-17T06:48:37;2.38;;;1.55;;
27365;SDS011;14837;57.148;-2.144;2022-09-17T06:51:04;6.50;;;1.50;;
27365;SDS011;14837;57.148;-2.144;2022-09-17T06:53:31;3.63;;;1.38;;
27365;SDS011;14837;57.148;-2.144;2022-09-17T06:55:58;5.63;;;1.63;;
27365;SDS011;14837;57.148;-2.144;2022-09-17T06:58:31;5.15;;;1.35;;
27365;SDS011;14837;57.148;-2.144;2022-09-17T07:00:59;3.17;;;1.38;;
27365;SDS011;14837;57.148;-2.144;2022-09-17T07:03:27;6.78;;;2.00;;
27365;SDS011;14837;57.148;-2.144;2022-09-17T07:05:53;2.88;;;1.77;;
27365;SDS011;14837;57.148;-2.144;2022-09-17T07:08:20;3.95;;;1.02;;
27365;SDS011;14837;57.148;-2.144;2022-09-17T07:10:46;4.38;;;1.33;;
27365;SDS011;14837;57.148;-2.144;2022-09-17T07:13:13;5.43;;;1.48;;
27365;SDS011;14837;57.148;-2.144;2022-09-17T07:15:39;1.52;;;1.08;;
27365;SDS011;14837;57.148;-2.144;2022-09-17T07:18:07;2.28;;;1.10;;
27365;SDS011;14837;57.148;-2.144;2022-09-17T07:20:33;4.63;;;1.40;;
27365;SDS011;14837;57.148;-2.144;2022-09-17T07:23:00;4.53;;;1.58;;
27365;SDS011;14837;57.148;-2.144;2022-09-17T07:25:27;2.78;;;1.30;;
27365;SDS011;14837;57.148;-2.144;2022-09-17T07:27:53;3.05;;;1.80;;
27365;SDS011;14837;57.148;-2.144;2022-09-17T07:30:20;3.60;;;1.48;;
27365;SDS011;14837;57.148;-2.144;2022-09-17T07:32:46;3.22;;;1.42;;
27365;SDS011;14837;57.148;-2.144;2022-09-17T07:35:13;2.10;;;1.38;;
27365;SDS011;14837;57.148;-2.144;2022-09-17T07:37:39;4.93;;;1.80;;
27365;SDS011;14837;57.148;-2.144;2022-09-17T07:40:06;4.28;;;1.77;;
27365;SDS011;14837;57.148;-2.144;2022-09-17T07:42:33;4.07;;;1.52;;
27365;SDS011;14837;57.148;-2.144;2022-09-17T07:45:00;7.90;;;1.83;;
27365;SDS011;14837;57.148;-2.144;2022-09-17T07:47:27;4.03;;;1.60;;
27365;SDS011;14837;57.148;-2.144;2022-09-17T07:49:54;3.17;;;1.45;;
27365;SDS011;14837;57.148;-2.144;2022-09-17T07:52:20;4.97;;;1.63;;
27365;SDS011;14837;57.148;-2.144;2022-09-17T07:54:47;5.72;;;2.42;;
27365;SDS011;14837;57.148;-2.144;2022-09-17T07:57:13;2.33;;;1.77;;
27365;SDS011;14837;57.148;-2.144;2022-09-17T07:59:40;3.60;;;1.33;;
27365;SDS011;14837;57.148;-2.144;2022-09-17T08:02:11;6.25;;;1.20;;
27365;SDS011;14837;57.148;-2.144;2022-09-17T08:04:40;2.35;;;1.50;;
27365;SDS011;14837;57.148;-2.144;2022-09-17T08:07:09;5.85;;;1.67;;
27365;SDS011;14837;57.148;-2.144;2022-09-17T08:09:35;2.15;;;1.35;;
27365;SDS011;14837;57.148;-2.144;2022-09-17T08:12:02;4.85;;;1.77;;
27365;SDS011;14837;57.148;-2.144;2022-09-17T08:14:28;4.05;;;1.23;;
27365;SDS011;14837;57.148;-2.144;2022-09-17T08:16:55;9.32;;;1.83;;
27365;SDS011;14837;57.148;-2.144;2022-09-17T08:19:22;6.22;;;1.67;;
27365;SDS011;14837;57.148;-2.144;2022-09-17T08:21:49;2.10;;;1.10;;
27365;SDS011;14837;57.148;-2.144;2022-09-17T08:24:16;3.13;;;1.38;;
27365;SDS011;14837;57.148;-2.144;2022-09-17T08:26:42;3.42;;;1.25;;
27365;SDS011;14837;57.148;-2.144;2022-09-17T08:29:09;2.33;;;0.93;;
27365;SDS011;14837;57.148;-2.144;2022-09-17T08:31:36;1.70;;;1.30;;
27365;SDS011;14837;57.148;-2.144;2022-09-17T08:34:06;3.03;;;1.20;;
27365;SDS011;14837;57.148;-2.144;2022-09-17T08:36:33;1.83;;;0.90;;
27365;SDS011;14837;57.148;-2.144;2022-09-17T08:38:59;2.70;;;1.63;;
27365;SDS011;14837;57.148;-2.144;2022-09-17T08:54:52;2.97;;;1.48;;
27365;SDS011;14837;57.148;-2.144;2022-09-17T09:00:09;3.90;;;1.52;;
27365;SDS011;14837;57.148;-2.144;2022-09-17T09:02:42;2.28;;;0.80;;
27365;SDS011;14837;57.148;-2.144;2022-09-17T09:05:49;1.42;;;0.98;;
27365;SDS011;14837;57.148;-2.144;2022-09-17T09:08:15;2.55;;;1.00;;
27365;SDS011;14837;57.148;-2.144;2022-09-17T09:10:52;2.20;;;1.10;;
27365;SDS011;14837;57.148;-2.144;2022-09-17T09:13:21;3.80;;;1.10;;
27365;SDS011;14837;57.148;-2.144;2022-09-17T09:18:25;4.65;;;1.05;;
27365;SDS011;14837;57.148;-2.144;2022-09-17T09:21:07;2.40;;;1.27;;
27365;SDS011;14837;57.148;-2.144;2022-09-17T09:26:18;5.75;;;1.75;;
27365;SDS011;14837;57.148;-2.144;2022-09-17T09:28:48;5.80;;;1.25;;
27365;SDS011;14837;57.148;-2.144;2022-09-17T09:31:30;3.40;;;0.85;;
27365;SDS011;14837;57.148;-2.144;2022-09-17T09:33:59;3.63;;;1.15;;
27365;SDS011;14837;57.148;-2.144;2022-09-17T09:36:27;2.60;;;1.17;;
27365;SDS011;14837;57.148;-2.144;2022-09-17T09:38:59;1.35;;;0.80;;
27365;SDS011;14837;57.148;-2.144;2022-09-17T09:44:04;2.35;;;0.90;;
27365;SDS011;14837;57.148;-2.144;2022-09-17T09:49:07;2.47;;;1.35;;
27365;SDS011;14837;57.148;-2.144;2022-09-17T09:54:28;2.83;;;1.20;;
27365;SDS011;14837;57.148;-2.144;2022-09-17T09:59:24;2.08;;;1.00;;
27365;SDS011;14837;57.148;-2.144;2022-09-17T10:01:51;1.73;;;0.70;;
27365;SDS011;14837;57.148;-2.144;2022-09-17T10:04:19;2.28;;;0.80;;
27365;SDS011;14837;57.148;-2.144;2022-09-17T10:06:47;4.07;;;1.30;;
27365;SDS011;14837;57.148;-2.144;2022-09-17T10:09:14;2.35;;;0.90;;
27365;SDS011;14837;57.148;-2.144;2022-09-17T10:11:42;1.13;;;0.88;;
27365;SDS011;14837;57.148;-2.144;2022-09-17T10:14:25;1.58;;;0.88;;
27365;SDS011;14837;57.148;-2.144;2022-09-17T10:19:40;2.63;;;1.10;;
27365;SDS011;14837;57.148;-2.144;2022-09-17T10:27:38;1.38;;;1.00;;
27365;SDS011;14837;57.148;-2.144;2022-09-17T10:32:35;2.17;;;1.58;;
27365;SDS011;14837;57.148;-2.144;2022-09-17T10:35:23;4.13;;;1.00;;
27365;SDS011;14837;57.148;-2.144;2022-09-17T10:37:50;3.42;;;1.50;;
27365;SDS011;14837;57.148;-2.144;2022-09-17T10:42:44;1.38;;;1.15;;
27365;SDS011;14837;57.148;-2.144;2022-09-17T10:45:32;2.08;;;0.90;;
27365;SDS011;14837;57.148;-2.144;2022-09-17T10:47:58;2.22;;;0.93;;
27365;SDS011;14837;57.148;-2.144;2022-09-17T10:50:29;4.10;;;0.77;;
27365;SDS011;14837;57.148;-2.144;2022-09-17T10:53:00;1.80;;;0.70;;
27365;SDS011;14837;57.148;-2.144;2022-09-17T10:55:28;1.90;;;1.10;;
27365;SDS011;14837;57.148;-2.144;2022-09-17T11:08:41;1.65;;;0.80;;
27365;SDS011;14837;57.148;-2.144;2022-09-17T11:11:25;5.32;;;1.00;;
27365;SDS011;14837;57.148;-2.144;2022-09-17T11:32:32;1.13;;;0.68;;
27365;SDS011;14837;57.148;-2.144;2022-09-17T11:35:13;1.23;;;0.65;;
27365;SDS011;14837;57.148;-2.144;2022-09-17T11:37:42;2.13;;;0.63;;
27365;SDS011;14837;57.148;-2.144;2022-09-17T11:43:23;2.58;;;0.60;;
27365;SDS011;14837;57.148;-2.144;2022-09-17T11:48:21;2.25;;;0.50;;
27365;SDS011;14837;57.148;-2.144;2022-09-17T11:50:50;3.97;;;0.77;;
27365;SDS011;14837;57.148;-2.144;2022-09-17T11:53:20;4.13;;;1.00;;
27365;SDS011;14837;57.148;-2.144;2022-09-17T11:55:55;2.65;;;1.17;;
27365;SDS011;14837;57.148;-2.144;2022-09-17T11:58:40;2.08;;;1.08;;
27365;SDS011;14837;57.148;-2.144;2022-09-17T12:01:13;2.97;;;0.80;;
27365;SDS011;14837;57.148;-2.144;2022-09-17T12:04:28;2.28;;;0.88;;
27365;SDS011;14837;57.148;-2.144;2022-09-17T12:06:37;1.48;;;0.80;;
27365;SDS011;14837;57.148;-2.144;2022-09-17T12:09:12;1.23;;;0.60;;
27365;SDS011;14837;57.148;-2.144;2022-09-17T12:14:20;1.30;;;0.47;;
27365;SDS011;14837;57.148;-2.144;2022-09-17T12:16:48;1.65;;;0.93;;
27365;SDS011;14837;57.148;-2.144;2022-09-17T12:19:18;2.20;;;0.65;;
27365;SDS011;14837;57.148;-2.144;2022-09-17T12:21:47;1.10;;;0.63;;
27365;SDS011;14837;57.148;-2.144;2022-09-17T12:24:27;1.15;;;0.57;;
27365;SDS011;14837;57.148;-2.144;2022-09-17T12:32:47;1.35;;;0.60;;
27365;SDS011;14837;57.148;-2.144;2022-09-17T12:43:39;4.13;;;0.85;;
27365;SDS011;14837;57.148;-2.144;2022-09-17T12:56:29;1.50;;;0.73;;
27365;SDS011;14837;57.148;-2.144;2022-09-17T12:59:03;2.17;;;0.82;;
27365;SDS011;14837;57.148;-2.144;2022-09-17T13:18:06;0.80;;;0.50;;
27365;SDS011;14837;57.148;-2.144;2022-09-17T13:20:59;1.67;;;0.52;;
27365;SDS011;14837;57.148;-2.144;2022-09-17T13:23:33;2.83;;;1.00;;
27365;SDS011;14837;57.148;-2.144;2022-09-17T13:26:00;2.28;;;0.75;;
27365;SDS011;14837;57.148;-2.144;2022-09-17T13:28:40;1.35;;;0.50;;
27365;SDS011;14837;57.148;-2.144;2022-09-17T13:31:18;0.90;;;0.60;;
27365;SDS011;14837;57.148;-2.144;2022-09-17T13:39:06;1.42;;;0.70;;
27365;SDS011;14837;57.148;-2.144;2022-09-17T13:41:37;3.90;;;0.70;;
27365;SDS011;14837;57.148;-2.144;2022-09-17T13:44:04;2.35;;;0.65;;
27365;SDS011;14837;57.148;-2.144;2022-09-17T13:46:32;3.38;;;0.77;;
27365;SDS011;14837;57.148;-2.144;2022-09-17T13:49:00;5.47;;;1.73;;
27365;SDS011;14837;57.148;-2.144;2022-09-17T13:54:00;2.90;;;0.90;;
27365;SDS011;14837;57.148;-2.144;2022-09-17T13:56:30;1.55;;;0.70;;
27365;SDS011;14837;57.148;-2.144;2022-09-17T13:59:04;4.60;;;1.27;;
27365;SDS011;14837;57.148;-2.144;2022-09-17T14:06:59;1.27;;;0.50;;
27365;SDS011;14837;57.148;-2.144;2022-09-17T14:09:33;3.33;;;0.60;;
27365;SDS011;14837;57.148;-2.144;2022-09-17T14:12:21;1.20;;;0.45;;
27365;SDS011;14837;57.148;-2.144;2022-09-17T14:14:49;1.83;;;0.70;;
27365;SDS011;14837;57.148;-2.144;2022-09-17T14:17:47;2.80;;;0.70;;
27365;SDS011;14837;57.148;-2.144;2022-09-17T14:20:03;1.75;;;0.55;;
27365;SDS011;14837;57.148;-2.144;2022-09-17T14:22:31;2.42;;;0.70;;
27365;SDS011;14837;57.148;-2.144;2022-09-17T14:24:58;1.15;;;0.50;;
27365;SDS011;14837;57.148;-2.144;2022-09-17T14:35:12;1.92;;;1.08;;
27365;SDS011;14837;57.148;-2.144;2022-09-17T14:37:46;2.08;;;0.80;;
27365;SDS011;14837;57.148;-2.144;2022-09-17T14:40:15;2.20;;;0.65;;
27365;SDS011;14837;57.148;-2.144;2022-09-17T14:42:42;1.02;;;0.70;;
27365;SDS011;14837;57.148;-2.144;2022-09-17T14:45:14;2.40;;;0.60;;
27365;SDS011;14837;57.148;-2.144;2022-09-17T14:47:42;0.90;;;0.40;;
27365;SDS011;14837;57.148;-2.144;2022-09-17T14:50:21;2.10;;;0.73;;
27365;SDS011;14837;57.148;-2.144;2022-09-17T14:52:49;1.85;;;0.60;;
27365;SDS011;14837;57.148;-2.144;2022-09-17T14:55:23;3.20;;;1.00;;
27365;SDS011;14837;57.148;-2.144;2022-09-17T14:57:52;5.18;;;1.23;;
27365;SDS011;14837;57.148;-2.144;2022-09-17T15:00:19;2.50;;;0.77;;
27365;SDS011;14837;57.148;-2.144;2022-09-17T15:02:54;2.72;;;0.63;;
27365;SDS011;14837;57.148;-2.144;2022-09-17T15:05:22;4.22;;;1.17;;
27365;SDS011;14837;57.148;-2.144;2022-09-17T15:07:50;2.03;;;0.88;;
27365;SDS011;14837;57.148;-2.144;2022-09-17T15:10:18;2.85;;;1.00;;
27365;SDS011;14837;57.148;-2.144;2022-09-17T15:12:45;2.90;;;0.95;;
27365;SDS011;14837;57.148;-2.144;2022-09-17T15:15:19;6.20;;;2.10;;
27365;SDS011;14837;57.148;-2.144;2022-09-17T15:17:46;4.35;;;0.75;;
27365;SDS011;14837;57.148;-2.144;2022-09-17T15:20:18;2.65;;;0.60;;
27365;SDS011;14837;57.148;-2.144;2022-09-17T15:22:46;1.60;;;0.50;;
27365;SDS011;14837;57.148;-2.144;2022-09-17T15:25:16;2.35;;;0.68;;
27365;SDS011;14837;57.148;-2.144;2022-09-17T15:27:44;1.40;;;0.57;;
27365;SDS011;14837;57.148;-2.144;2022-09-17T15:30:15;2.47;;;1.00;;
27365;SDS011;14837;57.148;-2.144;2022-09-17T15:32:55;2.80;;;0.90;;
27365;SDS011;14837;57.148;-2.144;2022-09-17T15:35:27;1.70;;;0.70;;
27365;SDS011;14837;57.148;-2.144;2022-09-17T15:37:56;3.00;;;0.68;;
27365;SDS011;14837;57.148;-2.144;2022-09-17T15:40:43;2.65;;;1.38;;
27365;SDS011;14837;57.148;-2.144;2022-09-17T15:43:28;3.80;;;1.23;;
27365;SDS011;14837;57.148;-2.144;2022-09-17T15:45:55;0.60;;;0.52;;
27365;SDS011;14837;57.148;-2.144;2022-09-17T15:48:33;4.50;;;1.10;;
27365;SDS011;14837;57.148;-2.144;2022-09-17T15:51:00;2.88;;;0.98;;
27365;SDS011;14837;57.148;-2.144;2022-09-17T15:53:28;1.67;;;0.80;;
27365;SDS011;14837;57.148;-2.144;2022-09-17T15:55:59;6.45;;;1.02;;
27365;SDS011;14837;57.148;-2.144;2022-09-17T15:58:28;1.70;;;0.95;;
27365;SDS011;14837;57.148;-2.144;2022-09-17T16:08:51;2.67;;;1.25;;
27365;SDS011;14837;57.148;-2.144;2022-09-17T16:11:21;3.55;;;2.28;;
27365;SDS011;14837;57.148;-2.144;2022-09-17T16:13:49;1.83;;;0.98;;
27365;SDS011;14837;57.148;-2.144;2022-09-17T16:16:21;1.52;;;0.70;;
27365;SDS011;14837;57.148;-2.144;2022-09-17T16:18:49;1.30;;;0.60;;
27365;SDS011;14837;57.148;-2.144;2022-09-17T16:21:17;2.38;;;0.75;;
27365;SDS011;14837;57.148;-2.144;2022-09-17T16:23:44;1.02;;;0.45;;
27365;SDS011;14837;57.148;-2.144;2022-09-17T16:26:12;2.75;;;1.13;;
27365;SDS011;14837;57.148;-2.144;2022-09-17T16:28:39;1.85;;;0.80;;
27365;SDS011;14837;57.148;-2.144;2022-09-17T16:31:08;6.80;;;0.82;;
27365;SDS011;14837;57.148;-2.144;2022-09-17T16:33:38;2.95;;;0.82;;
27365;SDS011;14837;57.148;-2.144;2022-09-17T16:36:04;1.10;;;0.75;;
27365;SDS011;14837;57.148;-2.144;2022-09-17T16:38:31;1.52;;;0.70;;
27365;SDS011;14837;57.148;-2.144;2022-09-17T16:40:58;2.47;;;1.10;;
27365;SDS011;14837;57.148;-2.144;2022-09-17T16:43:27;2.67;;;0.80;;
27365;SDS011;14837;57.148;-2.144;2022-09-17T16:46:12;0.98;;;0.60;;
27365;SDS011;14837;57.148;-2.144;2022-09-17T16:48:39;1.85;;;0.82;;
27365;SDS011;14837;57.148;-2.144;2022-09-17T16:51:07;1.10;;;0.50;;
27365;SDS011;14837;57.148;-2.144;2022-09-17T16:53:34;2.50;;;0.70;;
27365;SDS011;14837;57.148;-2.144;2022-09-17T16:56:00;1.42;;;1.05;;
27365;SDS011;14837;57.148;-2.144;2022-09-17T16:58:32;0.68;;;0.47;;
27365;SDS011;14837;57.148;-2.144;2022-09-17T17:01:12;1.38;;;0.57;;
27365;SDS011;14837;57.148;-2.144;2022-09-17T17:03:39;2.67;;;0.65;;
27365;SDS011;14837;57.148;-2.144;2022-09-17T17:06:13;2.92;;;1.05;;
27365;SDS011;14837;57.148;-2.144;2022-09-17T17:08:40;0.98;;;0.52;;
27365;SDS011;14837;57.148;-2.144;2022-09-17T17:11:06;4.70;;;0.98;;
27365;SDS011;14837;57.148;-2.144;2022-09-17T17:13:33;2.33;;;0.68;;
27365;SDS011;14837;57.148;-2.144;2022-09-17T17:16:04;1.33;;;0.60;;
27365;SDS011;14837;57.148;-2.144;2022-09-17T17:18:30;2.10;;;0.77;;
27365;SDS011;14837;57.148;-2.144;2022-09-17T17:21:03;2.15;;;1.23;;
27365;SDS011;14837;57.148;-2.144;2022-09-17T17:23:29;2.15;;;0.73;;
27365;SDS011;14837;57.148;-2.144;2022-09-17T17:25:56;2.53;;;0.80;;
27365;SDS011;14837;57.148;-2.144;2022-09-17T17:28:23;2.17;;;0.93;;
27365;SDS011;14837;57.148;-2.144;2022-09-17T17:30:49;3.13;;;0.93;;
27365;SDS011;14837;57.148;-2.144;2022-09-17T17:33:16;4.07;;;1.15;;
27365;SDS011;14837;57.148;-2.144;2022-09-17T17:35:43;3.47;;;1.48;;
27365;SDS011;14837;57.148;-2.144;2022-09-17T17:38:12;4.22;;;2.28;;
27365;SDS011;14837;57.148;-2.144;2022-09-17T17:40:38;3.75;;;1.52;;
27365;SDS011;14837;57.148;-2.144;2022-09-17T17:43:05;2.33;;;0.90;;
27365;SDS011;14837;57.148;-2.144;2022-09-17T17:45:31;2.75;;;0.80;;
27365;SDS011;14837;57.148;-2.144;2022-09-17T17:47:58;1.80;;;0.70;;
27365;SDS011;14837;57.148;-2.144;2022-09-17T17:50:24;2.63;;;1.55;;
27365;SDS011;14837;57.148;-2.144;2022-09-17T17:52:54;3.40;;;1.00;;
27365;SDS011;14837;57.148;-2.144;2022-09-17T17:55:21;4.05;;;0.75;;